sensor_id;sensor_type;location;lat;lon;timestamp;P1;durP1;ratioP1;P2;durP2;ratioP2
20611;SDS011;10465;42.686;23.364;2023-06-01T00:01:25;11.95;;;8.25;;
20611;SDS011;10465;42.686;23.364;2023-06-01T00:03:52;10.75;;;8.18;;
20611;SDS011;10465;42.686;23.364;2023-06-01T00:06:17;10.23;;;8.05;;
20611;SDS011;10465;42.686;23.364;2023-06-01T00:08:43;10.80;;;7.93;;
20611;SDS011;10465;42.686;23.364;2023-06-01T00:11:08;13.48;;;8.15;;
20611;SDS011;10465;42.686;23.364;2023-06-01T00:13:34;12.88;;;7.75;;
20611;SDS011;10465;42.686;23.364;2023-06-01T00:16:00;19.23;;;8.57;;
20611;SDS011;10465;42.686;23.364;2023-06-01T00:18:26;11.73;;;8.38;;
20611;SDS011;10465;42.686;23.364;2023-06-01T00:20:53;11.95;;;8.48;;
20611;SDS011;10465;42.686;23.364;2023-06-01T00:23:19;11.55;;;8.50;;
20611;SDS011;10465;42.686;23.364;2023-06-01T00:25:45;10.15;;;8.48;;
20611;SDS011;10465;42.686;23.364;2023-06-01T00:28:11;12.90;;;8.95;;
20611;SDS011;10465;42.686;23.364;2023-06-01T00:30:36;13.32;;;8.65;;
20611;SDS011;10465;42.686;23.364;2023-06-01T00:33:01;13.40;;;8.90;;
20611;SDS011;10465;42.686;23.364;2023-06-01T00:35:27;11.20;;;8.30;;
20611;SDS011;10465;42.686;23.364;2023-06-01T00:37:52;12.60;;;8.52;;
20611;SDS011;10465;42.686;23.364;2023-06-01T00:40:18;10.32;;;8.43;;
20611;SDS011;10465;42.686;23.364;2023-06-01T00:42:44;11.30;;;8.70;;
20611;SDS011;10465;42.686;23.364;2023-06-01T00:45:10;14.25;;;8.98;;
20611;SDS011;10465;42.686;23.364;2023-06-01T00:47:38;11.73;;;8.60;;
20611;SDS011;10465;42.686;23.364;2023-06-01T00:50:06;11.68;;;9.05;;
20611;SDS011;10465;42.686;23.364;2023-06-01T00:52:32;14.00;;;8.40;;
20611;SDS011;10465;42.686;23.364;2023-06-01T00:54:58;9.68;;;7.60;;
20611;SDS011;10465;42.686;23.364;2023-06-01T00:57:24;10.90;;;7.80;;
20611;SDS011;10465;42.686;23.364;2023-06-01T00:59:51;8.23;;;6.78;;
20611;SDS011;10465;42.686;23.364;2023-06-01T01:02:18;9.77;;;6.70;;
20611;SDS011;10465;42.686;23.364;2023-06-01T01:04:43;7.82;;;6.07;;
20611;SDS011;10465;42.686;23.364;2023-06-01T01:07:17;9.68;;;5.97;;
20611;SDS011;10465;42.686;23.364;2023-06-01T01:09:59;9.07;;;6.10;;
20611;SDS011;10465;42.686;23.364;2023-06-01T01:12:39;8.98;;;6.35;;
20611;SDS011;10465;42.686;23.364;2023-06-01T01:15:27;9.65;;;5.70;;
20611;SDS011;10465;42.686;23.364;2023-06-01T01:18:08;8.88;;;5.70;;
20611;SDS011;10465;42.686;23.364;2023-06-01T01:20:43;7.82;;;5.85;;
20611;SDS011;10465;42.686;23.364;2023-06-01T01:26:08;8.30;;;6.03;;
20611;SDS011;10465;42.686;23.364;2023-06-01T01:28:43;10.63;;;6.70;;
20611;SDS011;10465;42.686;23.364;2023-06-01T01:31:15;7.55;;;6.10;;
20611;SDS011;10465;42.686;23.364;2023-06-01T01:33:43;9.35;;;5.90;;
20611;SDS011;10465;42.686;23.364;2023-06-01T01:36:10;8.90;;;6.13;;
20611;SDS011;10465;42.686;23.364;2023-06-01T01:38:37;7.15;;;6.18;;
20611;SDS011;10465;42.686;23.364;2023-06-01T01:41:03;9.88;;;6.57;;
20611;SDS011;10465;42.686;23.364;2023-06-01T01:43:29;9.40;;;6.47;;
20611;SDS011;10465;42.686;23.364;2023-06-01T01:48:42;9.50;;;6.20;;
20611;SDS011;10465;42.686;23.364;2023-06-01T01:51:15;9.27;;;6.80;;
20611;SDS011;10465;42.686;23.364;2023-06-01T01:53:45;10.07;;;6.00;;
20611;SDS011;10465;42.686;23.364;2023-06-01T01:56:13;11.10;;;6.45;;
20611;SDS011;10465;42.686;23.364;2023-06-01T01:58:40;9.52;;;6.07;;
20611;SDS011;10465;42.686;23.364;2023-06-01T02:01:07;7.60;;;6.20;;
20611;SDS011;10465;42.686;23.364;2023-06-01T02:03:33;8.65;;;6.53;;
20611;SDS011;10465;42.686;23.364;2023-06-01T02:05:59;10.02;;;6.38;;
20611;SDS011;10465;42.686;23.364;2023-06-01T02:08:24;8.70;;;6.70;;
20611;SDS011;10465;42.686;23.364;2023-06-01T02:10:49;9.70;;;6.80;;
20611;SDS011;10465;42.686;23.364;2023-06-01T02:13:15;9.10;;;6.60;;
20611;SDS011;10465;42.686;23.364;2023-06-01T02:15:41;10.50;;;7.30;;
20611;SDS011;10465;42.686;23.364;2023-06-01T02:18:06;12.20;;;7.60;;
20611;SDS011;10465;42.686;23.364;2023-06-01T02:20:32;8.95;;;6.75;;
20611;SDS011;10465;42.686;23.364;2023-06-01T02:22:58;8.30;;;6.82;;
20611;SDS011;10465;42.686;23.364;2023-06-01T02:25:23;11.50;;;7.00;;
20611;SDS011;10465;42.686;23.364;2023-06-01T02:27:49;8.23;;;6.47;;
20611;SDS011;10465;42.686;23.364;2023-06-01T02:30:14;11.50;;;6.80;;
20611;SDS011;10465;42.686;23.364;2023-06-01T02:32:39;11.65;;;6.95;;
20611;SDS011;10465;42.686;23.364;2023-06-01T02:35:05;9.60;;;6.95;;
20611;SDS011;10465;42.686;23.364;2023-06-01T02:37:32;9.82;;;7.10;;
20611;SDS011;10465;42.686;23.364;2023-06-01T02:39:57;8.77;;;7.22;;
20611;SDS011;10465;42.686;23.364;2023-06-01T02:42:23;8.75;;;6.93;;
20611;SDS011;10465;42.686;23.364;2023-06-01T02:44:48;10.15;;;6.80;;
20611;SDS011;10465;42.686;23.364;2023-06-01T02:47:13;12.73;;;6.93;;
20611;SDS011;10465;42.686;23.364;2023-06-01T02:49:39;8.20;;;6.53;;
20611;SDS011;10465;42.686;23.364;2023-06-01T02:52:05;11.55;;;7.40;;
20611;SDS011;10465;42.686;23.364;2023-06-01T02:54:31;12.63;;;7.90;;
20611;SDS011;10465;42.686;23.364;2023-06-01T02:56:56;12.05;;;9.07;;
20611;SDS011;10465;42.686;23.364;2023-06-01T02:59:22;14.02;;;9.80;;
20611;SDS011;10465;42.686;23.364;2023-06-01T03:01:47;14.85;;;11.38;;
20611;SDS011;10465;42.686;23.364;2023-06-01T03:04:13;15.23;;;10.18;;
20611;SDS011;10465;42.686;23.364;2023-06-01T03:06:40;14.68;;;10.45;;
20611;SDS011;10465;42.686;23.364;2023-06-01T03:09:06;18.48;;;10.95;;
20611;SDS011;10465;42.686;23.364;2023-06-01T03:11:39;19.85;;;10.77;;
20611;SDS011;10465;42.686;23.364;2023-06-01T03:14:07;18.35;;;11.27;;
20611;SDS011;10465;42.686;23.364;2023-06-01T03:16:33;18.92;;;11.45;;
20611;SDS011;10465;42.686;23.364;2023-06-01T03:19:00;18.58;;;11.77;;
20611;SDS011;10465;42.686;23.364;2023-06-01T03:21:25;21.40;;;12.27;;
20611;SDS011;10465;42.686;23.364;2023-06-01T03:23:52;14.27;;;10.70;;
20611;SDS011;10465;42.686;23.364;2023-06-01T03:26:17;16.42;;;10.43;;
20611;SDS011;10465;42.686;23.364;2023-06-01T03:28:46;14.68;;;9.88;;
20611;SDS011;10465;42.686;23.364;2023-06-01T03:31:11;16.60;;;11.73;;
20611;SDS011;10465;42.686;23.364;2023-06-01T03:33:37;17.42;;;11.35;;
20611;SDS011;10465;42.686;23.364;2023-06-01T03:36:03;16.35;;;10.88;;
20611;SDS011;10465;42.686;23.364;2023-06-01T03:38:29;17.95;;;11.85;;
20611;SDS011;10465;42.686;23.364;2023-06-01T03:40:55;19.40;;;11.20;;
20611;SDS011;10465;42.686;23.364;2023-06-01T03:43:21;17.15;;;10.95;;
20611;SDS011;10465;42.686;23.364;2023-06-01T03:45:46;16.40;;;11.45;;
20611;SDS011;10465;42.686;23.364;2023-06-01T03:48:12;14.63;;;11.75;;
20611;SDS011;10465;42.686;23.364;2023-06-01T03:50:37;17.55;;;12.35;;
20611;SDS011;10465;42.686;23.364;2023-06-01T03:53:03;17.00;;;12.38;;
20611;SDS011;10465;42.686;23.364;2023-06-01T03:55:28;16.00;;;11.57;;
20611;SDS011;10465;42.686;23.364;2023-06-01T03:57:54;17.77;;;11.50;;
20611;SDS011;10465;42.686;23.364;2023-06-01T04:00:19;19.75;;;12.73;;
20611;SDS011;10465;42.686;23.364;2023-06-01T04:02:46;17.40;;;12.43;;
20611;SDS011;10465;42.686;23.364;2023-06-01T04:05:13;18.73;;;12.93;;
20611;SDS011;10465;42.686;23.364;2023-06-01T04:07:42;22.50;;;14.30;;
20611;SDS011;10465;42.686;23.364;2023-06-01T04:10:09;23.42;;;14.77;;
20611;SDS011;10465;42.686;23.364;2023-06-01T04:12:36;22.08;;;14.20;;
20611;SDS011;10465;42.686;23.364;2023-06-01T04:15:02;19.15;;;13.40;;
20611;SDS011;10465;42.686;23.364;2023-06-01T04:17:27;22.77;;;13.73;;
20611;SDS011;10465;42.686;23.364;2023-06-01T04:19:53;19.58;;;14.35;;
20611;SDS011;10465;42.686;23.364;2023-06-01T04:22:18;19.33;;;13.60;;
20611;SDS011;10465;42.686;23.364;2023-06-01T04:24:44;18.13;;;13.77;;
20611;SDS011;10465;42.686;23.364;2023-06-01T04:27:09;23.20;;;14.65;;
20611;SDS011;10465;42.686;23.364;2023-06-01T04:29:35;24.55;;;14.38;;
20611;SDS011;10465;42.686;23.364;2023-06-01T04:32:05;20.55;;;14.52;;
20611;SDS011;10465;42.686;23.364;2023-06-01T04:34:30;19.02;;;14.00;;
20611;SDS011;10465;42.686;23.364;2023-06-01T04:36:56;21.35;;;14.35;;
20611;SDS011;10465;42.686;23.364;2023-06-01T04:39:21;20.95;;;12.90;;
20611;SDS011;10465;42.686;23.364;2023-06-01T04:41:47;17.40;;;12.57;;
20611;SDS011;10465;42.686;23.364;2023-06-01T04:44:13;16.80;;;12.52;;
20611;SDS011;10465;42.686;23.364;2023-06-01T04:46:40;16.60;;;11.75;;
20611;SDS011;10465;42.686;23.364;2023-06-01T04:49:06;22.70;;;13.23;;
20611;SDS011;10465;42.686;23.364;2023-06-01T04:51:31;20.80;;;14.15;;
20611;SDS011;10465;42.686;23.364;2023-06-01T04:53:58;19.45;;;13.13;;
20611;SDS011;10465;42.686;23.364;2023-06-01T04:56:24;19.52;;;13.55;;
20611;SDS011;10465;42.686;23.364;2023-06-01T04:58:54;18.25;;;13.00;;
20611;SDS011;10465;42.686;23.364;2023-06-01T05:01:23;19.88;;;14.02;;
20611;SDS011;10465;42.686;23.364;2023-06-01T05:03:54;22.80;;;13.40;;
20611;SDS011;10465;42.686;23.364;2023-06-01T05:06:20;17.95;;;14.43;;
20611;SDS011;10465;42.686;23.364;2023-06-01T05:08:47;17.08;;;14.02;;
20611;SDS011;10465;42.686;23.364;2023-06-01T05:11:12;20.65;;;14.05;;
20611;SDS011;10465;42.686;23.364;2023-06-01T05:13:38;23.80;;;15.30;;
20611;SDS011;10465;42.686;23.364;2023-06-01T05:16:04;23.38;;;15.48;;
20611;SDS011;10465;42.686;23.364;2023-06-01T05:18:31;22.73;;;15.57;;
20611;SDS011;10465;42.686;23.364;2023-06-01T05:20:58;24.30;;;17.85;;
20611;SDS011;10465;42.686;23.364;2023-06-01T05:23:24;24.13;;;17.20;;
20611;SDS011;10465;42.686;23.364;2023-06-01T05:25:50;28.23;;;17.30;;
20611;SDS011;10465;42.686;23.364;2023-06-01T05:28:16;25.77;;;17.85;;
20611;SDS011;10465;42.686;23.364;2023-06-01T05:30:42;24.80;;;17.15;;
20611;SDS011;10465;42.686;23.364;2023-06-01T05:33:08;25.98;;;18.70;;
20611;SDS011;10465;42.686;23.364;2023-06-01T05:35:33;26.50;;;19.40;;
20611;SDS011;10465;42.686;23.364;2023-06-01T05:37:59;23.85;;;17.42;;
20611;SDS011;10465;42.686;23.364;2023-06-01T05:40:25;25.27;;;17.98;;
20611;SDS011;10465;42.686;23.364;2023-06-01T05:42:50;25.05;;;18.30;;
20611;SDS011;10465;42.686;23.364;2023-06-01T05:45:16;30.55;;;22.20;;
20611;SDS011;10465;42.686;23.364;2023-06-01T05:47:42;30.52;;;21.40;;
20611;SDS011;10465;42.686;23.364;2023-06-01T05:50:07;27.95;;;19.90;;
20611;SDS011;10465;42.686;23.364;2023-06-01T05:52:33;30.50;;;19.30;;
20611;SDS011;10465;42.686;23.364;2023-06-01T05:54:59;29.80;;;20.15;;
20611;SDS011;10465;42.686;23.364;2023-06-01T05:57:25;28.73;;;19.00;;
20611;SDS011;10465;42.686;23.364;2023-06-01T05:59:50;30.05;;;19.60;;
20611;SDS011;10465;42.686;23.364;2023-06-01T06:02:18;30.70;;;21.73;;
20611;SDS011;10465;42.686;23.364;2023-06-01T06:04:44;32.75;;;22.23;;
20611;SDS011;10465;42.686;23.364;2023-06-01T06:07:10;27.73;;;20.42;;
20611;SDS011;10465;42.686;23.364;2023-06-01T06:09:35;31.33;;;21.58;;
20611;SDS011;10465;42.686;23.364;2023-06-01T06:12:01;29.58;;;20.10;;
20611;SDS011;10465;42.686;23.364;2023-06-01T06:14:26;28.25;;;20.58;;
20611;SDS011;10465;42.686;23.364;2023-06-01T06:16:52;35.80;;;22.23;;
20611;SDS011;10465;42.686;23.364;2023-06-01T06:19:17;29.80;;;21.05;;
20611;SDS011;10465;42.686;23.364;2023-06-01T06:21:43;34.67;;;23.23;;
20611;SDS011;10465;42.686;23.364;2023-06-01T06:24:09;32.05;;;22.73;;
20611;SDS011;10465;42.686;23.364;2023-06-01T06:26:34;36.50;;;22.80;;
20611;SDS011;10465;42.686;23.364;2023-06-01T06:29:00;38.83;;;23.10;;
20611;SDS011;10465;42.686;23.364;2023-06-01T06:31:26;34.75;;;24.05;;
20611;SDS011;10465;42.686;23.364;2023-06-01T06:33:51;33.95;;;23.92;;
20611;SDS011;10465;42.686;23.364;2023-06-01T06:36:17;32.70;;;23.40;;
20611;SDS011;10465;42.686;23.364;2023-06-01T06:38:42;32.95;;;24.05;;
20611;SDS011;10465;42.686;23.364;2023-06-01T06:41:08;34.67;;;24.33;;
20611;SDS011;10465;42.686;23.364;2023-06-01T06:43:34;33.05;;;23.10;;
20611;SDS011;10465;42.686;23.364;2023-06-01T06:45:59;36.60;;;22.13;;
20611;SDS011;10465;42.686;23.364;2023-06-01T06:48:25;36.72;;;22.95;;
20611;SDS011;10465;42.686;23.364;2023-06-01T06:50:50;37.13;;;24.17;;
20611;SDS011;10465;42.686;23.364;2023-06-01T06:53:16;37.67;;;24.52;;
20611;SDS011;10465;42.686;23.364;2023-06-01T06:55:42;33.78;;;23.90;;
20611;SDS011;10465;42.686;23.364;2023-06-01T06:58:09;41.03;;;26.40;;
20611;SDS011;10465;42.686;23.364;2023-06-01T07:00:36;40.25;;;25.73;;
20611;SDS011;10465;42.686;23.364;2023-06-01T07:03:01;39.33;;;26.50;;
20611;SDS011;10465;42.686;23.364;2023-06-01T07:05:28;41.08;;;26.45;;
20611;SDS011;10465;42.686;23.364;2023-06-01T07:07:53;41.13;;;29.10;;
20611;SDS011;10465;42.686;23.364;2023-06-01T07:10:19;40.88;;;28.75;;
20611;SDS011;10465;42.686;23.364;2023-06-01T07:12:45;43.40;;;29.00;;
20611;SDS011;10465;42.686;23.364;2023-06-01T07:15:10;45.38;;;28.80;;
20611;SDS011;10465;42.686;23.364;2023-06-01T07:17:36;45.10;;;29.85;;
20611;SDS011;10465;42.686;23.364;2023-06-01T07:20:02;47.70;;;29.35;;
20611;SDS011;10465;42.686;23.364;2023-06-01T07:22:32;48.72;;;29.70;;
20611;SDS011;10465;42.686;23.364;2023-06-01T07:24:58;46.53;;;29.98;;
20611;SDS011;10465;42.686;23.364;2023-06-01T07:27:24;42.97;;;28.65;;
20611;SDS011;10465;42.686;23.364;2023-06-01T07:29:49;38.75;;;26.45;;
20611;SDS011;10465;42.686;23.364;2023-06-01T07:32:20;38.85;;;26.85;;
20611;SDS011;10465;42.686;23.364;2023-06-01T07:34:46;47.40;;;28.38;;
20611;SDS011;10465;42.686;23.364;2023-06-01T07:37:12;47.53;;;29.92;;
20611;SDS011;10465;42.686;23.364;2023-06-01T07:39:37;46.70;;;28.40;;
20611;SDS011;10465;42.686;23.364;2023-06-01T07:42:02;45.17;;;29.05;;
20611;SDS011;10465;42.686;23.364;2023-06-01T07:44:28;45.45;;;27.55;;
20611;SDS011;10465;42.686;23.364;2023-06-01T07:46:53;47.05;;;28.35;;
20611;SDS011;10465;42.686;23.364;2023-06-01T07:49:19;44.15;;;27.45;;
20611;SDS011;10465;42.686;23.364;2023-06-01T07:51:44;46.58;;;30.48;;
20611;SDS011;10465;42.686;23.364;2023-06-01T07:54:10;49.40;;;29.80;;
20611;SDS011;10465;42.686;23.364;2023-06-01T07:56:35;49.42;;;30.85;;
20611;SDS011;10465;42.686;23.364;2023-06-01T07:59:01;59.17;;;34.30;;
20611;SDS011;10465;42.686;23.364;2023-06-01T08:01:27;57.25;;;35.63;;
20611;SDS011;10465;42.686;23.364;2023-06-01T08:03:52;54.03;;;34.33;;
20611;SDS011;10465;42.686;23.364;2023-06-01T08:06:20;54.72;;;34.53;;
20611;SDS011;10465;42.686;23.364;2023-06-01T08:08:47;48.90;;;32.53;;
20611;SDS011;10465;42.686;23.364;2023-06-01T08:11:14;51.40;;;32.90;;
20611;SDS011;10465;42.686;23.364;2023-06-01T08:13:40;54.17;;;33.85;;
20611;SDS011;10465;42.686;23.364;2023-06-01T08:16:06;54.33;;;30.15;;
20611;SDS011;10465;42.686;23.364;2023-06-01T08:18:32;47.90;;;29.98;;
20611;SDS011;10465;42.686;23.364;2023-06-01T08:20:58;41.97;;;27.50;;
20611;SDS011;10465;42.686;23.364;2023-06-01T08:23:25;42.20;;;27.40;;
20611;SDS011;10465;42.686;23.364;2023-06-01T08:25:51;42.22;;;28.15;;
20611;SDS011;10465;42.686;23.364;2023-06-01T08:28:17;41.45;;;25.63;;
20611;SDS011;10465;42.686;23.364;2023-06-01T08:30:42;41.45;;;26.30;;
20611;SDS011;10465;42.686;23.364;2023-06-01T08:33:08;42.35;;;26.23;;
20611;SDS011;10465;42.686;23.364;2023-06-01T08:35:33;40.22;;;26.50;;
20611;SDS011;10465;42.686;23.364;2023-06-01T08:38:02;32.00;;;23.13;;
20611;SDS011;10465;42.686;23.364;2023-06-01T08:40:28;33.45;;;22.08;;
20611;SDS011;10465;42.686;23.364;2023-06-01T08:45:22;34.55;;;22.15;;
20611;SDS011;10465;42.686;23.364;2023-06-01T08:47:50;35.75;;;21.73;;
20611;SDS011;10465;42.686;23.364;2023-06-01T08:50:18;29.92;;;20.58;;
20611;SDS011;10465;42.686;23.364;2023-06-01T08:52:43;31.80;;;21.90;;
20611;SDS011;10465;42.686;23.364;2023-06-01T08:55:11;29.75;;;20.65;;
20611;SDS011;10465;42.686;23.364;2023-06-01T08:57:41;34.08;;;22.30;;
20611;SDS011;10465;42.686;23.364;2023-06-01T09:00:11;32.15;;;22.02;;
20611;SDS011;10465;42.686;23.364;2023-06-01T09:02:37;34.55;;;22.38;;
20611;SDS011;10465;42.686;23.364;2023-06-01T09:05:02;31.63;;;22.10;;
20611;SDS011;10465;42.686;23.364;2023-06-01T09:07:29;35.85;;;21.45;;
20611;SDS011;10465;42.686;23.364;2023-06-01T09:09:56;31.77;;;21.50;;
20611;SDS011;10465;42.686;23.364;2023-06-01T09:12:23;30.13;;;20.95;;
20611;SDS011;10465;42.686;23.364;2023-06-01T09:14:51;30.52;;;20.85;;
20611;SDS011;10465;42.686;23.364;2023-06-01T09:17:30;30.02;;;19.48;;
20611;SDS011;10465;42.686;23.364;2023-06-01T09:19:55;32.90;;;19.98;;
20611;SDS011;10465;42.686;23.364;2023-06-01T09:22:21;30.90;;;20.40;;
20611;SDS011;10465;42.686;23.364;2023-06-01T09:24:57;32.95;;;19.25;;
20611;SDS011;10465;42.686;23.364;2023-06-01T09:27:24;27.05;;;18.88;;
20611;SDS011;10465;42.686;23.364;2023-06-01T09:29:57;31.65;;;19.42;;
20611;SDS011;10465;42.686;23.364;2023-06-01T09:32:26;33.33;;;19.65;;
20611;SDS011;10465;42.686;23.364;2023-06-01T09:34:52;25.20;;;17.27;;
20611;SDS011;10465;42.686;23.364;2023-06-01T09:37:20;22.33;;;16.48;;
20611;SDS011;10465;42.686;23.364;2023-06-01T09:39:45;28.17;;;17.17;;
20611;SDS011;10465;42.686;23.364;2023-06-01T09:42:11;21.85;;;15.63;;
20611;SDS011;10465;42.686;23.364;2023-06-01T09:44:40;17.35;;;12.25;;
20611;SDS011;10465;42.686;23.364;2023-06-01T09:47:07;16.63;;;12.07;;
20611;SDS011;10465;42.686;23.364;2023-06-01T09:54:33;19.20;;;13.15;;
20611;SDS011;10465;42.686;23.364;2023-06-01T09:57:06;20.13;;;13.07;;
20611;SDS011;10465;42.686;23.364;2023-06-01T09:59:43;17.05;;;11.32;;
20611;SDS011;10465;42.686;23.364;2023-06-01T10:02:13;16.08;;;9.93;;
20611;SDS011;10465;42.686;23.364;2023-06-01T10:04:40;12.15;;;9.85;;
20611;SDS011;10465;42.686;23.364;2023-06-01T10:07:10;15.40;;;10.88;;
20611;SDS011;10465;42.686;23.364;2023-06-01T10:09:38;17.27;;;10.82;;
20611;SDS011;10465;42.686;23.364;2023-06-01T10:12:07;14.75;;;10.18;;
20611;SDS011;10465;42.686;23.364;2023-06-01T10:14:35;14.45;;;10.55;;
20611;SDS011;10465;42.686;23.364;2023-06-01T10:17:03;15.35;;;10.20;;
20611;SDS011;10465;42.686;23.364;2023-06-01T10:19:28;14.65;;;10.35;;
20611;SDS011;10465;42.686;23.364;2023-06-01T10:21:56;12.10;;;8.85;;
20611;SDS011;10465;42.686;23.364;2023-06-01T10:24:22;14.55;;;9.25;;
20611;SDS011;10465;42.686;23.364;2023-06-01T10:29:23;12.10;;;9.57;;
20611;SDS011;10465;42.686;23.364;2023-06-01T10:31:49;11.73;;;8.43;;
20611;SDS011;10465;42.686;23.364;2023-06-01T10:34:14;10.23;;;7.70;;
20611;SDS011;10465;42.686;23.364;2023-06-01T10:39:21;10.70;;;7.95;;
20611;SDS011;10465;42.686;23.364;2023-06-01T10:41:57;10.70;;;7.82;;
20611;SDS011;10465;42.686;23.364;2023-06-01T10:57:38;8.63;;;5.20;;
20611;SDS011;10465;42.686;23.364;2023-06-01T11:02:43;6.38;;;5.30;;
20611;SDS011;10465;42.686;23.364;2023-06-01T11:10:59;9.43;;;6.53;;
20611;SDS011;10465;42.686;23.364;2023-06-01T11:13:26;9.32;;;6.75;;
20611;SDS011;10465;42.686;23.364;2023-06-01T11:19:03;6.30;;;5.65;;
20611;SDS011;10465;42.686;23.364;2023-06-01T11:21:40;6.30;;;5.65;;
20611;SDS011;10465;42.686;23.364;2023-06-01T11:24:14;5.70;;;4.90;;
20611;SDS011;10465;42.686;23.364;2023-06-01T11:26:44;6.53;;;5.47;;
20611;SDS011;10465;42.686;23.364;2023-06-01T11:29:18;8.10;;;5.05;;
20611;SDS011;10465;42.686;23.364;2023-06-01T11:31:48;6.40;;;4.95;;
20611;SDS011;10465;42.686;23.364;2023-06-01T11:34:17;5.97;;;5.05;;
20611;SDS011;10465;42.686;23.364;2023-06-01T11:36:45;7.90;;;4.60;;
20611;SDS011;10465;42.686;23.364;2023-06-01T11:39:16;6.65;;;4.20;;
20611;SDS011;10465;42.686;23.364;2023-06-01T11:41:43;6.45;;;4.63;;
20611;SDS011;10465;42.686;23.364;2023-06-01T11:44:09;6.65;;;4.68;;
20611;SDS011;10465;42.686;23.364;2023-06-01T11:46:35;7.85;;;4.35;;
20611;SDS011;10465;42.686;23.364;2023-06-01T11:49:05;7.70;;;5.00;;
20611;SDS011;10465;42.686;23.364;2023-06-01T11:51:31;11.05;;;4.82;;
20611;SDS011;10465;42.686;23.364;2023-06-01T11:54:01;7.93;;;4.75;;
20611;SDS011;10465;42.686;23.364;2023-06-01T11:56:28;6.00;;;4.22;;
20611;SDS011;10465;42.686;23.364;2023-06-01T11:59:01;7.82;;;5.05;;
20611;SDS011;10465;42.686;23.364;2023-06-01T12:01:34;8.18;;;5.97;;
20611;SDS011;10465;42.686;23.364;2023-06-01T12:04:15;10.68;;;5.13;;
20611;SDS011;10465;42.686;23.364;2023-06-01T12:06:43;8.32;;;5.35;;
20611;SDS011;10465;42.686;23.364;2023-06-01T12:09:10;8.02;;;5.93;;
20611;SDS011;10465;42.686;23.364;2023-06-01T12:11:37;8.57;;;5.72;;
20611;SDS011;10465;42.686;23.364;2023-06-01T12:14:03;8.02;;;5.78;;
20611;SDS011;10465;42.686;23.364;2023-06-01T12:19:26;10.55;;;5.15;;
20611;SDS011;10465;42.686;23.364;2023-06-01T12:21:53;5.20;;;4.50;;
20611;SDS011;10465;42.686;23.364;2023-06-01T12:24:30;7.18;;;4.78;;
20611;SDS011;10465;42.686;23.364;2023-06-01T12:27:00;7.80;;;4.88;;
20611;SDS011;10465;42.686;23.364;2023-06-01T12:29:39;5.88;;;4.43;;
20611;SDS011;10465;42.686;23.364;2023-06-01T12:32:07;7.00;;;4.82;;
20611;SDS011;10465;42.686;23.364;2023-06-01T12:34:34;7.32;;;5.18;;
20611;SDS011;10465;42.686;23.364;2023-06-01T12:37:10;5.95;;;4.88;;
20611;SDS011;10465;42.686;23.364;2023-06-01T12:39:40;5.55;;;4.82;;
20611;SDS011;10465;42.686;23.364;2023-06-01T12:42:06;6.47;;;5.00;;
20611;SDS011;10465;42.686;23.364;2023-06-01T12:44:32;8.32;;;5.22;;
20611;SDS011;10465;42.686;23.364;2023-06-01T12:46:58;7.95;;;5.38;;
20611;SDS011;10465;42.686;23.364;2023-06-01T12:49:25;7.30;;;5.47;;
20611;SDS011;10465;42.686;23.364;2023-06-01T12:51:50;8.63;;;6.10;;
20611;SDS011;10465;42.686;23.364;2023-06-01T12:54:16;7.28;;;5.47;;
20611;SDS011;10465;42.686;23.364;2023-06-01T12:56:42;6.75;;;5.47;;
20611;SDS011;10465;42.686;23.364;2023-06-01T12:59:08;8.48;;;6.20;;
20611;SDS011;10465;42.686;23.364;2023-06-01T13:01:35;11.35;;;6.18;;
20611;SDS011;10465;42.686;23.364;2023-06-01T13:04:00;11.05;;;7.20;;
20611;SDS011;10465;42.686;23.364;2023-06-01T13:06:28;9.90;;;6.57;;
20611;SDS011;10465;42.686;23.364;2023-06-01T13:08:54;11.10;;;6.78;;
20611;SDS011;10465;42.686;23.364;2023-06-01T13:11:20;8.77;;;5.88;;
20611;SDS011;10465;42.686;23.364;2023-06-01T13:13:47;7.22;;;5.95;;
20611;SDS011;10465;42.686;23.364;2023-06-01T13:16:13;8.93;;;6.28;;
20611;SDS011;10465;42.686;23.364;2023-06-01T13:18:39;7.97;;;5.85;;
20611;SDS011;10465;42.686;23.364;2023-06-01T13:21:05;9.55;;;6.40;;
20611;SDS011;10465;42.686;23.364;2023-06-01T13:23:30;10.25;;;6.47;;
20611;SDS011;10465;42.686;23.364;2023-06-01T13:25:56;9.15;;;6.43;;
20611;SDS011;10465;42.686;23.364;2023-06-01T13:28:22;8.25;;;5.97;;
20611;SDS011;10465;42.686;23.364;2023-06-01T13:30:48;6.70;;;5.63;;
20611;SDS011;10465;42.686;23.364;2023-06-01T13:33:13;9.40;;;5.85;;
20611;SDS011;10465;42.686;23.364;2023-06-01T13:35:39;9.70;;;6.20;;
20611;SDS011;10465;42.686;23.364;2023-06-01T13:38:04;10.50;;;6.85;;
20611;SDS011;10465;42.686;23.364;2023-06-01T13:40:30;8.27;;;5.88;;
20611;SDS011;10465;42.686;23.364;2023-06-01T13:42:55;10.57;;;6.32;;
20611;SDS011;10465;42.686;23.364;2023-06-01T13:45:21;10.15;;;5.90;;
20611;SDS011;10465;42.686;23.364;2023-06-01T13:47:47;7.30;;;5.50;;
20611;SDS011;10465;42.686;23.364;2023-06-01T13:50:13;7.82;;;4.45;;
20611;SDS011;10465;42.686;23.364;2023-06-01T13:52:42;6.63;;;4.72;;
20611;SDS011;10465;42.686;23.364;2023-06-01T13:55:08;6.00;;;5.07;;
20611;SDS011;10465;42.686;23.364;2023-06-01T13:57:36;6.07;;;4.00;;
20611;SDS011;10465;42.686;23.364;2023-06-01T14:00:03;5.57;;;4.15;;
20611;SDS011;10465;42.686;23.364;2023-06-01T14:02:30;6.75;;;4.20;;
20611;SDS011;10465;42.686;23.364;2023-06-01T14:04:55;6.03;;;3.90;;
20611;SDS011;10465;42.686;23.364;2023-06-01T14:07:21;6.15;;;5.03;;
20611;SDS011;10465;42.686;23.364;2023-06-01T14:09:46;6.45;;;3.97;;
20611;SDS011;10465;42.686;23.364;2023-06-01T14:12:12;6.82;;;4.03;;
20611;SDS011;10465;42.686;23.364;2023-06-01T14:14:37;5.78;;;4.18;;
20611;SDS011;10465;42.686;23.364;2023-06-01T14:17:03;6.22;;;4.13;;
20611;SDS011;10465;42.686;23.364;2023-06-01T14:19:29;6.45;;;3.97;;
20611;SDS011;10465;42.686;23.364;2023-06-01T14:21:54;5.70;;;4.20;;
20611;SDS011;10465;42.686;23.364;2023-06-01T14:24:20;7.22;;;4.55;;
20611;SDS011;10465;42.686;23.364;2023-06-01T14:26:46;7.03;;;4.47;;
20611;SDS011;10465;42.686;23.364;2023-06-01T14:29:11;4.95;;;4.45;;
20611;SDS011;10465;42.686;23.364;2023-06-01T14:31:37;7.15;;;4.07;;
20611;SDS011;10465;42.686;23.364;2023-06-01T14:34:02;5.47;;;3.88;;
20611;SDS011;10465;42.686;23.364;2023-06-01T14:36:28;6.32;;;4.72;;
20611;SDS011;10465;42.686;23.364;2023-06-01T14:38:53;9.05;;;4.70;;
20611;SDS011;10465;42.686;23.364;2023-06-01T14:41:19;6.78;;;5.18;;
20611;SDS011;10465;42.686;23.364;2023-06-01T14:43:45;8.90;;;5.28;;
20611;SDS011;10465;42.686;23.364;2023-06-01T14:46:10;6.43;;;5.18;;
20611;SDS011;10465;42.686;23.364;2023-06-01T14:48:36;8.35;;;6.15;;
20611;SDS011;10465;42.686;23.364;2023-06-01T14:51:01;8.52;;;5.43;;
20611;SDS011;10465;42.686;23.364;2023-06-01T14:53:27;5.57;;;4.80;;
20611;SDS011;10465;42.686;23.364;2023-06-01T14:55:52;7.88;;;6.20;;
20611;SDS011;10465;42.686;23.364;2023-06-01T14:58:18;7.32;;;5.80;;
20611;SDS011;10465;42.686;23.364;2023-06-01T15:00:43;7.13;;;5.78;;
20611;SDS011;10465;42.686;23.364;2023-06-01T15:03:09;9.68;;;6.22;;